site sitenws-alerts: Checking more than four warning/county codes can delay the loading of your pages. You should use a cron job to get the data.

Nearby METAR Weather Reports

 

KDMA - Davis/Tucson, Arizona, USA
Distance from station: W 21mi, 34km
Updated: 09/21/2018 2:58pm
NOT Current
Clear
Clear
 Wind from calm
Wind: Calm
Temperature: 93°F , 34°C
Dew Point: 55°F , 13°C
Humidity: 28%
Barometer: 29.99 inHg , 1015.6 hPa
Clouds: Clear
Visibility: 10 miles , 16 km
2018/09/21 21:58 KDMA 212158Z AUTO 00000KT 10SM CLR 34/13 A2999 RMK AO2 SLP113 T03440132 $
KTUS - Tucson, Arizona, USA
Distance from station: W 26mi, 42km
Updated: 09/21/2018 4:53pm
Few Clouds
Few Clouds
 
Temperature: 91°F , 33°C
Dew Point: 52°F , 11°C
Humidity: 26%
Barometer: 29.99 inHg , 1015.6 hPa
Clouds: Few Clouds
Visibility: 10 miles , 16 km
Cloud details: Few Clouds 9000 ft
2018/09/21 23:53 KTUS 212353Z 10SM FEW090 33/11 A2999 RMK AO2 SLP109 T03330111 10344 20294 56011
 
KALK - Pioneer Airfield, Arizona, USA
Distance from station: S 37mi, 60km
Updated: 09/21/2018 4:56pm
Clear
Clear
 Wind from ESE
Wind: ESE 9 mph , 15 km/h
Temperature: 82°F , 28°C
Dew Point: 37°F , 3°C
Humidity: 20%
Barometer: 30.14 inHg , 1020.7 hPa
Clouds: Clear
Visibility: 10 miles , 16 km
2018/09/21 23:56 KALK 212356Z AUTO 12008KT 10SM CLR 28/03 A3014 RMK AO2 SLP117 T02830033 10306 20272 55005 $
KRYN - Tucson/Ryan Fld, Arizona, USA
Distance from station: W 39mi, 62km
Updated: 09/21/2018 4:45pm
Clear
Clear
 Wind from WNW
Wind: WNW 12 mph , 19 km/h
Temperature: 91°F , 33°C
Dew Point: 54°F , 12°C
Humidity: 28%
Barometer: 29.98 inHg , 1015.2 hPa
Clouds: Clear
Visibility: 10 miles , 16 km
2018/09/21 23:45 KRYN 212345Z 30010KT 10SM CLR 33/12 A2998
 
KFHU - Fort Huachuca, Arizona, USA
Distance from station: SSE 39mi, 63km
Updated: 09/21/2018 4:58pm
Clear
Clear
 Wind from ESE
Wind: ESE 9 mph , 15 km/h
Temperature: 84°F , 29°C
Dew Point: 39°F , 4°C
Humidity: 20%
Barometer: 30.14 inHg , 1020.7 hPa
Clouds: Clear
Visibility: 10 miles , 16 km
2018/09/21 23:58 KFHU 212358Z AUTO 11008KT 10SM CLR 29/04 A3014 RMK AO2 SLP136 T02900039 10304 20269 55004
KOLS - Nogales, Arizona, USA
Distance from station: SSW 54mi, 86km
Updated: 09/21/2018 4:54pm
Mostly cloudy
Mostly cloudy
 Wind from varies
Wind: varies 3 mph , 6 km/h
Temperature: 90°F , 32°C
Dew Point: 43°F , 6°C
Humidity: 20%
Barometer: 30.05 inHg , 1017.6 hPa
Clouds: Mostly cloudy
Visibility: 10 miles , 16 km
Cloud details: Mostly cloudy 11000 ft
2018/09/21 23:54 KOLS 212354Z AUTO VRB03KT 10SM BKN110 32/06 A3005 RMK AO2 SLP110 T03220061 10322 20272 56008
 
KDUG - Douglas Bisbee, Arizona, USA
Distance from station: SE 71mi, 114km
Updated: 09/21/2018 4:56pm
Clear
Clear
 Wind from ENE
Wind: ENE 9 mph , 15 km/h
Temperature: 88°F , 31°C
Dew Point: 43°F , 6°C
Humidity: 21%
Barometer: 30.07 inHg , 1018.3 hPa
Clouds: Clear
Visibility: 10 miles , 16 km
2018/09/21 23:56 KDUG 212356Z AUTO 06008KT 10SM CLR 31/06 A3007 RMK AO2 SLP117 T03060061 10322 20267 56007
KSAD - Safford, Arizona, USA
Distance from station: NE 71mi, 114km
Updated: 09/21/2018 4:51pm
Clear
Clear
 Wind from SW
Wind: SW 6 mph , 9 km/h
Temperature: 91°F , 33°C
Dew Point: 37°F , 3°C
Humidity: 15%
Barometer: 30.00 inHg , 1015.9 hPa
Clouds: Clear
Visibility: 10 miles , 16 km
2018/09/21 23:51 KSAD 212351Z AUTO 22005KT 10SM CLR 33/03 A3000 RMK AO2 SLP106 T03330028 10339 20289 55008
 
KCGZ - Casa Granda, Arizona, USA
Distance from station: NW 93mi, 149km
Updated: 09/21/2018 4:56pm
Clear
Clear
 Wind from WSW
Wind: WSW 6 mph , 9 km/h
Temperature: 97°F , 36°C
Dew Point: 57°F , 14°C
Humidity: 27%
Barometer: 29.91 inHg , 1012.9 hPa
Clouds: Clear
Visibility: 10 miles , 16 km
2018/09/21 23:56 KCGZ 212356Z AUTO 25005KT 10SM CLR 36/14 A2991 RMK AO2 SLP111 6//// T03560144 10361 20300 56012 PNO $
KLSB - Lordsburg, New Mexico, USA
Distance from station: E 106mi, 171km
Updated: 02/26/2018 1:22pm
NOT Current
Clear
Clear
 Wind from ESE
Wind: ESE 13 mph , 20 km/h, Gust: 18 mph , 30 km/h
Temperature: 63°F , 17°C
Dew Point: 10°F , -12°C
Humidity: 13%
Barometer: 30.04 inHg , 1017.3 hPa
Clouds: Clear
Visibility: 10 miles , 16 km
2018/02/26 20:22 KLSB 262022Z AUTO 11011G16KT 090V150 10SM CLR 17/M12 A3004
 
KPHX - Phoenix/Sky Hrbr, Arizona, USA
Distance from station: NW 126mi, 202km
Updated: 09/21/2018 4:51pm
Few Clouds
Few Clouds
 Wind from SSW
Wind: SSW 3 mph , 6 km/h
Temperature: 100°F , 38°C
Dew Point: 46°F , 8°C
Humidity: 16%
Barometer: 29.85 inHg , 1010.8 hPa
Clouds: Few Clouds
Visibility: 10 miles , 16 km
Cloud details: Few Clouds 12000 ft
Few Clouds 21000 ft
Few Clouds 25000 ft
2018/09/21 23:51 KPHX 212351Z 21003KT 10SM FEW120 FEW210 FEW250 38/08 A2985 RMK AO2 SLP087 T03780083 10383 20317 56015
KGXF - Gila Bend (aaf), Arizona, USA
Distance from station: WNW 139mi, 223km
Updated: 09/18/2018 12:58pm
NOT Current
Clear
Clear
 Wind from WSW
Wind: WSW 5 mph , 7 km/h
Temperature: 100°F , 38°C
Dew Point: 57°F , 14°C
Humidity: 24%
Barometer: 29.77 inHg , 1008.1 hPa
Clouds: Clear
Visibility: 10 miles , 16 km
2018/09/18 19:58 KGXF 181958Z AUTO 25004KT 10SM CLR 38/14 A2977 RMK AO2 SLP066 T03770135
 
KSVC - Silver City, New Mexico, USA
Distance from station: ENE 142mi, 228km
Updated: 09/21/2018 4:55pm
Clear
Clear
 Wind from ENE
Wind: ENE 15 mph , 24 km/h, Gust: 23 mph , 37 km/h
Temperature: 79°F , 26°C
Dew Point: 45°F , 7°C
Humidity: 30%
Barometer: 30.21 inHg , 1023 hPa
Clouds: Clear
Visibility: 10 miles , 16 km
2018/09/21 23:55 KSVC 212355Z AUTO 06013G20KT 10SM CLR 26/07 A3021 RMK AO2 T02570072 10282 20257
KLUF - Luke Afb/Glendal, Arizona, USA
Distance from station: NW 144mi, 232km
Updated: 09/18/2018 12:56pm
NOT Current
Clear
Clear
 Wind from SSW
Wind: SSW 12 mph , 19 km/h
Temperature: 100°F , 38°C
Dew Point: 59°F , 15°C
Humidity: 25%
Barometer: 29.78 inHg , 1008.5 hPa
Clouds: Clear
Visibility: 10 miles , 16 km
2018/09/18 19:56 KLUF 181956Z AUTO 20010KT 10SM CLR 38/15 A2978 RMK AO2 SLP069 T03800145 $